sensor_id;sensor_type;location;lat;lon;timestamp;P1;durP1;ratioP1;P2;durP2;ratioP2
63324;SDS011;49451;52.390;13.028;2023-04-15T04:02:09;35.85;;;21.27;;
63324;SDS011;49451;52.390;13.028;2023-04-15T04:04:35;35.38;;;21.20;;
63324;SDS011;49451;52.390;13.028;2023-04-15T04:07:01;36.75;;;21.77;;
63324;SDS011;49451;52.390;13.028;2023-04-15T04:09:26;37.20;;;22.90;;
63324;SDS011;49451;52.390;13.028;2023-04-15T04:11:51;37.25;;;21.08;;
63324;SDS011;49451;52.390;13.028;2023-04-15T04:14:17;38.47;;;21.98;;
63324;SDS011;49451;52.390;13.028;2023-04-15T04:16:42;35.35;;;21.30;;
63324;SDS011;49451;52.390;13.028;2023-04-15T04:19:08;43.10;;;22.95;;
63324;SDS011;49451;52.390;13.028;2023-04-15T04:21:34;37.97;;;21.73;;
63324;SDS011;49451;52.390;13.028;2023-04-15T04:24:00;38.30;;;21.92;;
63324;SDS011;49451;52.390;13.028;2023-04-15T04:26:26;36.85;;;21.48;;
63324;SDS011;49451;52.390;13.028;2023-04-15T04:28:51;41.08;;;22.30;;
63324;SDS011;49451;52.390;13.028;2023-04-15T04:31:17;37.10;;;22.35;;
63324;SDS011;49451;52.390;13.028;2023-04-15T04:33:42;32.20;;;21.00;;
63324;SDS011;49451;52.390;13.028;2023-04-15T04:36:08;38.00;;;20.73;;
63324;SDS011;49451;52.390;13.028;2023-04-15T04:38:33;41.67;;;22.23;;
63324;SDS011;49451;52.390;13.028;2023-04-15T04:40:58;40.42;;;20.85;;
63324;SDS011;49451;52.390;13.028;2023-04-15T04:43:24;37.88;;;21.88;;
63324;SDS011;49451;52.390;13.028;2023-04-15T04:45:50;37.75;;;21.70;;
63324;SDS011;49451;52.390;13.028;2023-04-15T04:48:15;40.97;;;21.42;;
63324;SDS011;49451;52.390;13.028;2023-04-15T04:50:41;38.83;;;22.10;;
63324;SDS011;49451;52.390;13.028;2023-04-15T04:53:07;40.55;;;21.08;;
63324;SDS011;49451;52.390;13.028;2023-04-15T04:55:33;39.28;;;20.95;;
63324;SDS011;49451;52.390;13.028;2023-04-15T04:58:01;36.72;;;21.58;;
63324;SDS011;49451;52.390;13.028;2023-04-15T05:00:26;37.47;;;21.45;;
63324;SDS011;49451;52.390;13.028;2023-04-15T05:02:52;37.28;;;21.67;;
63324;SDS011;49451;52.390;13.028;2023-04-15T05:05:17;39.40;;;21.38;;
63324;SDS011;49451;52.390;13.028;2023-04-15T05:07:42;35.67;;;21.60;;
63324;SDS011;49451;52.390;13.028;2023-04-15T05:10:09;39.85;;;21.77;;
63324;SDS011;49451;52.390;13.028;2023-04-15T05:12:34;35.92;;;19.23;;
63324;SDS011;49451;52.390;13.028;2023-04-15T05:15:01;32.92;;;19.85;;
63324;SDS011;49451;52.390;13.028;2023-04-15T05:17:26;34.40;;;20.48;;
63324;SDS011;49451;52.390;13.028;2023-04-15T05:19:52;37.03;;;20.25;;
63324;SDS011;49451;52.390;13.028;2023-04-15T05:22:17;35.72;;;20.88;;
63324;SDS011;49451;52.390;13.028;2023-04-15T05:24:43;33.20;;;19.00;;
63324;SDS011;49451;52.390;13.028;2023-04-15T05:27:08;36.20;;;20.15;;
63324;SDS011;49451;52.390;13.028;2023-04-15T05:29:35;33.83;;;19.73;;
63324;SDS011;49451;52.390;13.028;2023-04-15T05:32:01;37.88;;;21.27;;
63324;SDS011;49451;52.390;13.028;2023-04-15T05:34:26;35.55;;;19.83;;
63324;SDS011;49451;52.390;13.028;2023-04-15T05:36:51;35.17;;;21.05;;
63324;SDS011;49451;52.390;13.028;2023-04-15T05:39:17;35.45;;;19.15;;
63324;SDS011;49451;52.390;13.028;2023-04-15T05:41:42;34.08;;;19.67;;
63324;SDS011;49451;52.390;13.028;2023-04-15T05:44:08;38.58;;;20.52;;
63324;SDS011;49451;52.390;13.028;2023-04-15T05:46:33;36.95;;;20.73;;
63324;SDS011;49451;52.390;13.028;2023-04-15T05:49:00;33.13;;;19.77;;
63324;SDS011;49451;52.390;13.028;2023-04-15T05:51:25;39.78;;;19.67;;
63324;SDS011;49451;52.390;13.028;2023-04-15T05:53:51;34.30;;;19.08;;
63324;SDS011;49451;52.390;13.028;2023-04-15T05:56:16;33.70;;;19.25;;
63324;SDS011;49451;52.390;13.028;2023-04-15T05:58:42;31.55;;;19.08;;
63324;SDS011;49451;52.390;13.028;2023-04-15T06:01:07;34.65;;;19.75;;
63324;SDS011;49451;52.390;13.028;2023-04-15T06:03:32;32.10;;;19.80;;
63324;SDS011;49451;52.390;13.028;2023-04-15T06:05:58;33.35;;;19.58;;
63324;SDS011;49451;52.390;13.028;2023-04-15T06:08:24;32.67;;;19.30;;
63324;SDS011;49451;52.390;13.028;2023-04-15T06:10:50;35.47;;;20.08;;
63324;SDS011;49451;52.390;13.028;2023-04-15T06:13:15;29.85;;;19.13;;
63324;SDS011;49451;52.390;13.028;2023-04-15T06:15:41;28.20;;;17.42;;
63324;SDS011;49451;52.390;13.028;2023-04-15T06:18:06;28.15;;;18.45;;
63324;SDS011;49451;52.390;13.028;2023-04-15T06:20:31;32.38;;;18.85;;
63324;SDS011;49451;52.390;13.028;2023-04-15T06:22:57;28.83;;;18.52;;
63324;SDS011;49451;52.390;13.028;2023-04-15T06:25:22;30.80;;;18.80;;
63324;SDS011;49451;52.390;13.028;2023-04-15T06:27:48;27.35;;;17.48;;
63324;SDS011;49451;52.390;13.028;2023-04-15T06:30:13;30.08;;;17.33;;
63324;SDS011;49451;52.390;13.028;2023-04-15T06:32:38;25.77;;;16.90;;
63324;SDS011;49451;52.390;13.028;2023-04-15T06:35:04;29.08;;;17.00;;
63324;SDS011;49451;52.390;13.028;2023-04-15T06:37:29;25.90;;;17.25;;
63324;SDS011;49451;52.390;13.028;2023-04-15T06:39:55;27.95;;;17.48;;
63324;SDS011;49451;52.390;13.028;2023-04-15T06:42:21;24.00;;;16.17;;
63324;SDS011;49451;52.390;13.028;2023-04-15T06:44:47;35.38;;;17.65;;
63324;SDS011;49451;52.390;13.028;2023-04-15T06:47:12;27.60;;;16.75;;
63324;SDS011;49451;52.390;13.028;2023-04-15T06:49:38;24.00;;;15.55;;
63324;SDS011;49451;52.390;13.028;2023-04-15T06:52:04;25.80;;;17.00;;
63324;SDS011;49451;52.390;13.028;2023-04-15T06:54:30;23.95;;;16.42;;
63324;SDS011;49451;52.390;13.028;2023-04-15T06:56:55;25.30;;;15.60;;
63324;SDS011;49451;52.390;13.028;2023-04-15T06:59:20;24.05;;;16.05;;
63324;SDS011;49451;52.390;13.028;2023-04-15T07:01:46;26.13;;;16.17;;
63324;SDS011;49451;52.390;13.028;2023-04-15T07:04:11;22.50;;;15.00;;
63324;SDS011;49451;52.390;13.028;2023-04-15T07:06:37;25.73;;;15.23;;
63324;SDS011;49451;52.390;13.028;2023-04-15T07:09:02;27.73;;;15.82;;
63324;SDS011;49451;52.390;13.028;2023-04-15T07:11:29;21.77;;;14.50;;
63324;SDS011;49451;52.390;13.028;2023-04-15T07:13:54;27.85;;;15.30;;
63324;SDS011;49451;52.390;13.028;2023-04-15T07:16:20;20.92;;;14.43;;
63324;SDS011;49451;52.390;13.028;2023-04-15T07:18:45;20.58;;;14.00;;
63324;SDS011;49451;52.390;13.028;2023-04-15T07:21:11;25.27;;;15.60;;
63324;SDS011;49451;52.390;13.028;2023-04-15T07:23:36;19.02;;;13.70;;
63324;SDS011;49451;52.390;13.028;2023-04-15T07:26:02;20.70;;;12.77;;
63324;SDS011;49451;52.390;13.028;2023-04-15T07:28:27;20.98;;;13.55;;
63324;SDS011;49451;52.390;13.028;2023-04-15T07:30:53;20.90;;;15.50;;
63324;SDS011;49451;52.390;13.028;2023-04-15T07:33:21;21.40;;;13.95;;
63324;SDS011;49451;52.390;13.028;2023-04-15T07:35:46;19.02;;;12.48;;
63324;SDS011;49451;52.390;13.028;2023-04-15T07:38:12;17.60;;;13.02;;
63324;SDS011;49451;52.390;13.028;2023-04-15T07:40:37;23.77;;;14.27;;
63324;SDS011;49451;52.390;13.028;2023-04-15T07:43:03;18.98;;;13.57;;
63324;SDS011;49451;52.390;13.028;2023-04-15T07:45:29;17.20;;;12.18;;
63324;SDS011;49451;52.390;13.028;2023-04-15T07:47:55;17.80;;;12.77;;
63324;SDS011;49451;52.390;13.028;2023-04-15T07:50:20;21.63;;;13.00;;
63324;SDS011;49451;52.390;13.028;2023-04-15T07:52:47;17.50;;;12.10;;
63324;SDS011;49451;52.390;13.028;2023-04-15T07:55:13;17.60;;;12.48;;
63324;SDS011;49451;52.390;13.028;2023-04-15T07:57:39;18.30;;;12.38;;
63324;SDS011;49451;52.390;13.028;2023-04-15T08:00:04;17.95;;;12.60;;
63324;SDS011;49451;52.390;13.028;2023-04-15T08:02:31;18.88;;;12.35;;
63324;SDS011;49451;52.390;13.028;2023-04-15T08:04:57;21.52;;;12.98;;
63324;SDS011;49451;52.390;13.028;2023-04-15T08:07:23;20.25;;;12.23;;
63324;SDS011;49451;52.390;13.028;2023-04-15T08:09:49;17.35;;;12.07;;
63324;SDS011;49451;52.390;13.028;2023-04-15T08:12:15;14.93;;;11.73;;
63324;SDS011;49451;52.390;13.028;2023-04-15T08:14:40;18.95;;;11.65;;
63324;SDS011;49451;52.390;13.028;2023-04-15T08:17:06;19.50;;;11.32;;
63324;SDS011;49451;52.390;13.028;2023-04-15T08:19:32;17.23;;;11.45;;
63324;SDS011;49451;52.390;13.028;2023-04-15T08:21:58;17.98;;;13.05;;
63324;SDS011;49451;52.390;13.028;2023-04-15T08:24:23;20.65;;;13.48;;
63324;SDS011;49451;52.390;13.028;2023-04-15T08:26:50;16.10;;;12.13;;
63324;SDS011;49451;52.390;13.028;2023-04-15T08:29:16;18.98;;;11.27;;
63324;SDS011;49451;52.390;13.028;2023-04-15T08:31:41;22.98;;;12.07;;
63324;SDS011;49451;52.390;13.028;2023-04-15T08:34:07;14.55;;;11.52;;
63324;SDS011;49451;52.390;13.028;2023-04-15T08:36:33;19.23;;;11.88;;
63324;SDS011;49451;52.390;13.028;2023-04-15T08:38:58;21.58;;;11.85;;
63324;SDS011;49451;52.390;13.028;2023-04-15T08:41:26;14.65;;;11.02;;
63324;SDS011;49451;52.390;13.028;2023-04-15T08:44:00;15.05;;;10.95;;
63324;SDS011;49451;52.390;13.028;2023-04-15T08:46:29;19.00;;;11.82;;
63324;SDS011;49451;52.390;13.028;2023-04-15T08:48:56;16.08;;;12.38;;
63324;SDS011;49451;52.390;13.028;2023-04-15T08:51:22;19.67;;;11.85;;
63324;SDS011;49451;52.390;13.028;2023-04-15T08:53:48;16.00;;;11.55;;
63324;SDS011;49451;52.390;13.028;2023-04-15T08:56:14;18.20;;;11.48;;
63324;SDS011;49451;52.390;13.028;2023-04-15T08:58:40;18.00;;;11.98;;
63324;SDS011;49451;52.390;13.028;2023-04-15T09:01:07;16.50;;;12.15;;
63324;SDS011;49451;52.390;13.028;2023-04-15T09:03:33;16.20;;;11.57;;
63324;SDS011;49451;52.390;13.028;2023-04-15T09:05:59;19.00;;;12.75;;
63324;SDS011;49451;52.390;13.028;2023-04-15T09:08:25;17.23;;;12.30;;
